Canefield Airport

Fair with slight dust haze
28oC (82oF)

Fair with slight dust haze


Winds: Southerly @ 02kts / 04km/h

Humidity: 57%

Barometric Pressure: 1014 mb

Accumulated Rainfall for February: 41.3 mm

Updated: 18:00 local time (22:00 UTC)

Douglas-Charles Airport

Partly cloudy with slight dust haze
24oC (75oF)

Partly cloudy with slight dust haze


Winds: West north westerly @ 03kts / 06km/h

Humidity: 93%

Barometric Pressure: 1016 mb

Accumulated Rainfall for February: 175.7 mm

Updated: 20:00 local time (00:00 UTC)

Satellite Imagery

Satellite Imagery
Click image for larger view.
(Source: National Hurricane Center).

Aviation Routine Report (METAR)

Douglas-Charles: METAR TDPD 270000Z 29003KT 9999 SCT017 24/23 Q1016=
Canefield: METAR TDPD 262200Z 17002KT 9999 FEW020 28/19 Q1014=